San Antonio, Texas
Traffic Map
Current Weather Conditions
San Antonio, Texas
Scattered Clouds
Scattered Clouds
89°
Feels Like: 91°
Wind Chill: 89° Ceiling: Unl
Heat Index: 91° Visibility: 10mi
Dew Point: 66° Wind: 7mph
Humidity: 46% Direction: 90° (E)
Pressure: 29.85in Gusts: 0mph
Raw Report DataKSAT 282251Z 09006KT 10SM SCT050 SCT250 32/19 A2985 RMK AO2 SLP090 T03170189
Traffic Incident Summary
Active as of:
Severity:
Category:
InformationThere was an issue retrieving the traffic information for this location. Please try a different location or try again shortly.
Advertisements
Track Severe Weather on mobile